Warrington, Indiana
Current Conditions -  °F | °C
As of 2:55 PM on Thursday 30 Oct 2014 (Local Time) from KMQJ Reporting Station
Clear Clear  
Wind Chill: 52°   Ceiling: Unl
Heat Index: 52°   Visibility: 10mi
Dew Point: 23°   Wind: 5mph
Humidity: 33%   Direction: 230°SW
Pressure: 30.09"   Gusts: NA
Location:  39.9098°N, 85.6325°W
Report Text: KMQJ 301855Z AUTO 23004KT 10SM CLR 11/M05 A3009 RMK AO1
Loading
Personal Weather Stations






























Interactive Weather Map
Tropical Storm Tracking
New forecast layout! Learn more

10-Day Weather Forecast

Advertisements
Track Severe Weather on mobile